createdAt,value
2022-07-30T00:00:41.811Z,101011.53
2022-07-30T00:02:43.391Z,101015.50
2022-07-30T00:04:45.003Z,101011.50
2022-07-30T00:06:47.903Z,101004.66
2022-07-30T00:08:49.483Z,101011.47
2022-07-30T00:10:51.361Z,101008.63
2022-07-30T00:12:52.920Z,101011.59
2022-07-30T00:14:54.446Z,101012.88
2022-07-30T00:16:56.419Z,101018.00
2022-07-30T00:18:57.997Z,101014.00
2022-07-30T00:20:59.696Z,101006.31
2022-07-30T00:23:04.399Z,101007.41
2022-07-30T00:25:06.682Z,101006.81
2022-07-30T00:27:08.219Z,101012.94
2022-07-30T00:29:09.759Z,101007.97
2022-07-30T00:31:11.305Z,101008.81
2022-07-30T00:33:12.899Z,101011.78
2022-07-30T00:35:14.665Z,101016.75
2022-07-30T00:37:16.190Z,101002.22
2022-07-30T00:39:19.142Z,101007.34
2022-07-30T00:41:20.748Z,101012.59
2022-07-30T00:43:22.284Z,101014.03
2022-07-30T00:45:23.867Z,101010.19
2022-07-30T00:47:25.471Z,101010.19
2022-07-30T00:49:27.432Z,101006.22
2022-07-30T00:51:29.006Z,101003.06
2022-07-30T00:53:30.534Z,101000.78
2022-07-30T00:55:33.853Z,101004.59
2022-07-30T00:57:35.754Z,101000.59
2022-07-30T00:59:37.249Z,100996.44
2022-07-30T01:01:38.938Z,101010.34
2022-07-30T01:03:40.480Z,101000.69
2022-07-30T01:05:42.058Z,101007.66
2022-07-30T01:07:43.738Z,100995.69
2022-07-30T01:09:48.061Z,100998.38
2022-07-30T01:11:51.511Z,100993.84
2022-07-30T01:13:53.035Z,100993.13
2022-07-30T01:15:54.747Z,100993.97
2022-07-30T01:17:59.944Z,100991.25
2022-07-30T01:20:06.122Z,100999.88
2022-07-30T01:22:15.886Z,101000.59
2022-07-30T01:24:28.566Z,100999.88
2022-07-30T01:26:32.029Z,100994.59
2022-07-30T01:28:36.972Z,100991.78
2022-07-30T01:30:41.396Z,100994.59
2022-07-30T01:32:44.987Z,100990.59
2022-07-30T01:34:47.706Z,100987.16
2022-07-30T01:36:50.656Z,100986.91
2022-07-30T01:38:53.983Z,100994.00
2022-07-30T01:40:57.133Z,100991.84
2022-07-30T01:43:01.827Z,100995.91
2022-07-30T01:45:05.670Z,100989.66
2022-07-30T01:47:09.578Z,100973.44
2022-07-30T01:49:12.172Z,100983.06
2022-07-30T01:51:14.296Z,100980.09
2022-07-30T01:53:18.002Z,100979.66
2022-07-30T01:55:24.645Z,100984.31
2022-07-30T01:57:26.557Z,100983.28
2022-07-30T01:59:31.882Z,100988.06
2022-07-30T02:01:33.475Z,100985.13
2022-07-30T02:03:35.471Z,100991.38
2022-07-30T02:05:38.779Z,100984.38
2022-07-30T02:07:45.664Z,100989.47
2022-07-30T02:09:54.093Z,100999.13
2022-07-30T02:11:58.172Z,100993.88
2022-07-30T02:13:59.887Z,100983.47
2022-07-30T02:16:09.791Z,100998.22
2022-07-30T02:18:17.512Z,100971.75
2022-07-30T02:20:19.574Z,100988.78
2022-07-30T02:22:31.756Z,100989.13
2022-07-30T02:24:36.444Z,100987.66
2022-07-30T02:26:40.656Z,100987.94
2022-07-30T02:28:45.304Z,100989.66
2022-07-30T02:30:51.237Z,100977.66
2022-07-30T02:33:01.984Z,100983.06
2022-07-30T02:35:09.377Z,100984.63
2022-07-30T02:37:12.533Z,100982.19
2022-07-30T02:39:15.994Z,100981.59
2022-07-30T02:41:20.109Z,100985.03
2022-07-30T02:43:24.119Z,100982.59
2022-07-30T02:45:27.649Z,100983.84
2022-07-30T02:47:31.653Z,100986.41
2022-07-30T02:49:36.145Z,100980.16
2022-07-30T02:51:38.496Z,100976.72
2022-07-30T02:53:40.870Z,100982.38
2022-07-30T02:55:43.827Z,100982.63
2022-07-30T02:57:47.397Z,100976.53
2022-07-30T02:59:50.677Z,100976.38
2022-07-30T03:01:53.227Z,100972.09
2022-07-30T03:03:55.346Z,100981.38
2022-07-30T03:06:00.221Z,100961.44
2022-07-30T03:08:02.582Z,100980.28
2022-07-30T03:10:06.592Z,100986.03
2022-07-30T03:12:10.008Z,100975.03
2022-07-30T03:14:11.623Z,100987.03
2022-07-30T03:16:16.722Z,100988.50
2022-07-30T03:18:20.269Z,100995.84
2022-07-30T03:20:26.216Z,100993.16
2022-07-30T03:22:33.038Z,100995.00
2022-07-30T03:24:36.543Z,100987.66
2022-07-30T03:26:40.049Z,100994.03
2022-07-30T03:28:42.986Z,100988.03
2022-07-30T03:30:44.707Z,100993.19
2022-07-30T03:32:47.347Z,100993.19
2022-07-30T03:34:49.830Z,100997.50
2022-07-30T03:36:52.642Z,101005.97
2022-07-30T03:38:56.182Z,101006.09
2022-07-30T03:40:58.416Z,101016.28
2022-07-30T03:43:00.219Z,101008.44
2022-07-30T03:45:05.491Z,101015.16
2022-07-30T03:47:08.947Z,101012.09
2022-07-30T03:49:11.834Z,101014.16
2022-07-30T03:51:14.236Z,101011.81
2022-07-30T03:53:16.311Z,101012.44
2022-07-30T03:55:19.359Z,101006.78
2022-07-30T03:57:21.082Z,101015.25
2022-07-30T03:59:22.643Z,101015.81
2022-07-30T04:01:25.292Z,101018.19
2022-07-30T04:03:29.501Z,101014.50
2022-07-30T04:05:37.424Z,101019.81
2022-07-30T04:07:44.800Z,101021.09
2022-07-30T04:09:46.560Z,101022.84
2022-07-30T04:11:49.618Z,101018.44
2022-07-30T04:13:51.155Z,101030.28
2022-07-30T04:16:35.519Z,101031.78
2022-07-30T04:18:24.406Z,101030.94
2022-07-30T04:20:31.301Z,101038.03
2022-07-30T04:22:36.090Z,101037.19
2022-07-30T04:24:39.829Z,101034.28
2022-07-30T04:26:42.099Z,101035.97
2022-07-30T04:28:46.072Z,101035.97
2022-07-30T04:30:47.628Z,101042.38
2022-07-30T04:32:49.410Z,101043.34
2022-07-30T04:34:52.819Z,101046.25
2022-07-30T04:36:54.382Z,101037.31
2022-07-30T04:38:56.007Z,101039.31
2022-07-30T04:40:57.648Z,101041.28
2022-07-30T04:42:59.214Z,101039.81
2022-07-30T04:45:02.051Z,101040.41
2022-07-30T04:47:03.919Z,101033.09
2022-07-30T04:49:05.561Z,101038.38
2022-07-30T04:51:12.767Z,101038.75
2022-07-30T04:53:15.362Z,101038.41
2022-07-30T04:55:18.606Z,101045.78
2022-07-30T04:57:20.492Z,101043.94
2022-07-30T04:59:25.025Z,101040.59
2022-07-30T05:01:34.023Z,101040.94
2022-07-30T05:03:43.213Z,101042.84
2022-07-30T05:05:46.520Z,101037.94
2022-07-30T05:07:48.444Z,101037.69
2022-07-30T05:09:49.975Z,101035.72
2022-07-30T05:11:51.669Z,101039.16
2022-07-30T05:13:53.233Z,101036.41
2022-07-30T05:15:54.836Z,101037.19
2022-07-30T05:17:58.925Z,101036.41
2022-07-30T05:20:00.590Z,101037.31
2022-07-30T05:22:06.730Z,101037.66
2022-07-30T05:24:08.623Z,101027.44
2022-07-30T05:26:10.763Z,101031.09
2022-07-30T05:28:12.297Z,101031.97
2022-07-30T05:30:13.942Z,101035.50
2022-07-30T05:32:15.788Z,101024.72
2022-07-30T05:34:20.523Z,101027.81
2022-07-30T05:36:22.392Z,101026.69
2022-07-30T05:38:24.743Z,101031.56
2022-07-30T05:40:30.324Z,101032.78
2022-07-30T05:42:31.918Z,101033.69
2022-07-30T05:44:33.431Z,101015.50
2022-07-30T05:46:34.954Z,101028.19
2022-07-30T05:48:36.522Z,101030.09
2022-07-30T05:50:39.756Z,101038.09
2022-07-30T05:52:41.269Z,101030.41
2022-07-30T05:54:42.769Z,101040.16
2022-07-30T05:56:44.290Z,101050.38
2022-07-30T05:58:45.844Z,101045.56
2022-07-30T06:00:47.928Z,101052.88
2022-07-30T06:02:49.478Z,101055.72
2022-07-30T06:04:51.267Z,101056.28
2022-07-30T06:06:54.368Z,101055.47
2022-07-30T06:08:55.961Z,101052.06
2022-07-30T06:10:57.522Z,101049.19
2022-07-30T06:12:59.103Z,101047.91
2022-07-30T06:15:00.670Z,101047.50
2022-07-30T06:17:02.627Z,101053.22
2022-07-30T06:19:04.540Z,101045.59
2022-07-30T06:21:06.119Z,101056.75
2022-07-30T06:23:08.976Z,101051.63
2022-07-30T06:25:11.207Z,101056.63
2022-07-30T06:27:12.832Z,101049.66
2022-07-30T06:29:14.377Z,101057.19
2022-07-30T06:31:16.046Z,101051.78
2022-07-30T06:33:17.676Z,101047.16
2022-07-30T06:35:19.315Z,101056.72
2022-07-30T06:37:21.026Z,101062.88
2022-07-30T06:39:57.359Z,101068.75
2022-07-30T06:41:59.756Z,101066.84
2022-07-30T06:44:01.331Z,101062.75
2022-07-30T06:46:02.988Z,101072.03
2022-07-30T06:48:05.156Z,101065.91
2022-07-30T06:50:08.406Z,101070.88
2022-07-30T06:52:12.678Z,101071.59
2022-07-30T06:54:17.314Z,101076.00
2022-07-30T06:56:20.208Z,101068.59
2022-07-30T06:58:25.490Z,101070.44
2022-07-30T07:00:27.423Z,101077.25
2022-07-30T07:02:28.957Z,101074.53
2022-07-30T07:04:30.577Z,101077.25
2022-07-30T07:06:32.177Z,101074.00
2022-07-30T07:08:35.995Z,101072.31
2022-07-30T07:10:37.570Z,101077.59
2022-07-30T07:12:40.420Z,101086.00
2022-07-30T07:14:41.964Z,101086.88
2022-07-30T07:16:43.535Z,101090.84
2022-07-30T07:18:50.705Z,101084.59
2022-07-30T07:20:52.214Z,101080.19
2022-07-30T07:22:53.747Z,101085.75
2022-07-30T07:24:55.316Z,101080.31
2022-07-30T07:26:56.878Z,101081.47
2022-07-30T07:29:04.766Z,101084.31
2022-07-30T07:31:06.995Z,101076.88
2022-07-30T07:33:09.367Z,101081.44
2022-07-30T07:35:10.833Z,101072.88
2022-07-30T07:37:12.421Z,101083.44
2022-07-30T07:39:15.052Z,101080.03
2022-07-30T07:41:17.082Z,101076.84
2022-07-30T07:43:18.594Z,101080.00
2022-07-30T07:45:21.466Z,101071.47
2022-07-30T07:47:23.152Z,101083.44
2022-07-30T07:49:24.782Z,101083.31
2022-07-30T07:51:46.760Z,101086.84
2022-07-30T07:54:05.712Z,101083.66
2022-07-30T07:56:09.428Z,101085.66
2022-07-30T07:58:13.126Z,101089.38
2022-07-30T08:00:18.488Z,101076.19
2022-07-30T08:02:21.511Z,101082.31
2022-07-30T08:04:23.200Z,101083.28
2022-07-30T08:06:24.769Z,101082.53
2022-07-30T08:08:26.305Z,101078.34
2022-07-30T08:10:28.367Z,101082.69
2022-07-30T08:12:29.938Z,101084.59
2022-07-30T08:14:31.469Z,101079.88
2022-07-30T08:16:33.118Z,101086.38
2022-07-30T08:18:37.210Z,101083.75
2022-07-30T08:20:39.103Z,101078.88
2022-07-30T08:22:41.128Z,101088.13
2022-07-30T08:24:43.013Z,101085.47
2022-07-30T08:26:44.608Z,101081.56
2022-07-30T08:28:46.195Z,101077.25
2022-07-30T08:30:47.716Z,101080.78
2022-07-30T08:32:49.403Z,101075.22
2022-07-30T08:34:52.257Z,101078.13
2022-07-30T08:36:54.074Z,101078.63
2022-07-30T08:38:55.590Z,101078.78
2022-07-30T08:40:57.505Z,101078.28
2022-07-30T08:43:00.406Z,101071.25
2022-07-30T08:45:02.516Z,101071.97
2022-07-30T08:47:06.137Z,101074.59
2022-07-30T08:49:11.272Z,101080.25
2022-07-30T08:51:15.811Z,101075.31
2022-07-30T08:53:18.258Z,101079.66
2022-07-30T08:55:20.659Z,101077.56
2022-07-30T08:57:22.736Z,101074.91
2022-07-30T08:59:24.320Z,101073.97
2022-07-30T09:01:45.841Z,101085.91
2022-07-30T09:03:47.350Z,101070.94
2022-07-30T09:05:49.004Z,101081.75
2022-07-30T09:07:52.009Z,101083.19
2022-07-30T09:09:53.510Z,101083.03
2022-07-30T09:11:55.184Z,101083.59
2022-07-30T09:14:08.678Z,101080.38
2022-07-30T09:16:19.342Z,101076.06
2022-07-30T09:18:28.984Z,101078.47
2022-07-30T09:20:33.362Z,101071.16
2022-07-30T09:22:42.697Z,101081.19
2022-07-30T09:24:45.659Z,101078.63
2022-07-30T09:26:55.844Z,101077.75
2022-07-30T09:29:15.216Z,101075.06
2022-07-30T09:31:17.634Z,101070.38
2022-07-30T09:33:36.360Z,101070.69
2022-07-30T09:35:38.174Z,101066.91
2022-07-30T09:37:39.884Z,101069.34
2022-07-30T09:39:42.452Z,101060.81
2022-07-30T09:41:59.910Z,101073.75
2022-07-30T09:44:03.787Z,101071.22
2022-07-30T09:46:05.485Z,101069.16
2022-07-30T09:48:21.099Z,101065.81
2022-07-30T09:50:30.412Z,101073.41
2022-07-30T09:52:32.422Z,101072.31
2022-07-30T09:54:51.615Z,101071.72
2022-07-30T09:57:06.098Z,101067.09
2022-07-30T09:59:28.657Z,101070.94
2022-07-30T10:01:54.885Z,101055.38
2022-07-30T10:04:02.506Z,101068.69
2022-07-30T10:06:04.096Z,101068.22
2022-07-30T10:08:16.425Z,101070.81
2022-07-30T10:10:20.395Z,101073.06
2022-07-30T10:12:26.394Z,101077.50
2022-07-30T10:14:32.204Z,101064.72
2022-07-30T10:16:34.191Z,101072.72
2022-07-30T10:18:36.007Z,101081.56
2022-07-30T10:20:37.745Z,101067.09
2022-07-30T10:22:42.666Z,101063.66
2022-07-30T10:24:47.626Z,101064.34
2022-07-30T10:26:52.349Z,101067.63
2022-07-30T10:28:55.829Z,101070.50
2022-07-30T10:30:58.336Z,101073.56
2022-07-30T10:33:02.018Z,101071.34
2022-07-30T10:35:05.689Z,101073.91
2022-07-30T10:37:07.950Z,101073.91
2022-07-30T10:39:13.917Z,101070.16
2022-07-30T10:41:44.368Z,101069.47
2022-07-30T10:44:04.787Z,101073.41
2022-07-30T10:46:19.928Z,101068.13
2022-07-30T10:48:25.039Z,101067.25
2022-07-30T10:50:27.297Z,101058.06
2022-07-30T10:52:43.494Z,101064.72
2022-07-30T10:54:45.479Z,101066.56
2022-07-30T10:57:03.852Z,101074.75
2022-07-30T10:59:08.858Z,101069.31
2022-07-30T11:01:18.401Z,101069.09
2022-07-30T11:03:22.048Z,101069.28
2022-07-30T11:05:31.900Z,101068.59
2022-07-30T11:07:47.473Z,101061.91
2022-07-30T11:10:05.361Z,101055.47
2022-07-30T11:12:12.835Z,101065.84
2022-07-30T11:14:20.347Z,101069.78
2022-07-30T11:16:23.599Z,101068.09
2022-07-30T11:18:28.679Z,101061.22
2022-07-30T11:20:31.913Z,101057.16
2022-07-30T11:22:34.486Z,101060.16
2022-07-30T11:24:45.531Z,101059.13
2022-07-30T11:26:49.769Z,101067.34
2022-07-30T11:28:51.323Z,101061.53
2022-07-30T11:30:55.571Z,101056.84
2022-07-30T11:33:22.966Z,101054.69
2022-07-30T11:35:35.567Z,101055.59
2022-07-30T11:38:02.194Z,101037.94
2022-07-30T11:40:08.992Z,101064.03
2022-07-30T11:42:27.120Z,101060.06
2022-07-30T11:44:29.755Z,101057.75
2022-07-30T11:46:31.678Z,101072.09
2022-07-30T11:48:35.424Z,101061.13
2022-07-30T11:50:37.125Z,101069.16
2022-07-30T11:52:38.807Z,101056.44
2022-07-30T11:54:51.847Z,101063.28
2022-07-30T11:56:54.826Z,101066.34
2022-07-30T11:59:01.450Z,101066.59
2022-07-30T12:01:09.387Z,101060.19
2022-07-30T12:03:13.361Z,101063.03
2022-07-30T12:05:16.994Z,101053.38
2022-07-30T12:07:22.189Z,101053.97
2022-07-30T12:09:27.544Z,101050.50
2022-07-30T12:11:32.593Z,101059.56
2022-07-30T12:13:44.664Z,101052.63
2022-07-30T12:15:47.923Z,101057.16
2022-07-30T12:17:51.404Z,101048.41
2022-07-30T12:20:16.607Z,101042.19
2022-07-30T12:22:18.125Z,101048.63
2022-07-30T12:24:25.351Z,101054.50
2022-07-30T12:26:29.150Z,101054.22
2022-07-30T12:28:32.912Z,101053.13
2022-07-30T12:30:37.512Z,101052.78
2022-07-30T12:32:39.386Z,101064.56
2022-07-30T12:34:53.702Z,101061.78
2022-07-30T12:37:07.384Z,101052.75
2022-07-30T12:39:17.773Z,101054.06
2022-07-30T12:41:19.315Z,101055.50
2022-07-30T12:43:41.694Z,101053.22
2022-07-30T12:45:51.573Z,101059.47
2022-07-30T12:47:56.202Z,101058.34
2022-07-30T12:50:01.402Z,101056.66
2022-07-30T12:52:05.117Z,101042.09
2022-07-30T12:54:16.192Z,101043.59
2022-07-30T12:56:23.490Z,101038.78
2022-07-30T12:58:25.045Z,101027.84
2022-07-30T13:00:29.190Z,101036.59
2022-07-30T13:02:32.206Z,101039.25
2022-07-30T13:04:37.154Z,101043.78
2022-07-30T13:06:41.586Z,101048.69
2022-07-30T13:08:53.133Z,101054.09
2022-07-30T13:10:56.337Z,101040.88
2022-07-30T13:12:59.852Z,101042.47
2022-07-30T13:15:01.588Z,101050.31
2022-07-30T13:17:03.453Z,101040.94
2022-07-30T13:19:06.573Z,101049.25
2022-07-30T13:21:09.129Z,101053.38
2022-07-30T13:23:10.668Z,101043.25
2022-07-30T13:25:13.671Z,101038.97
2022-07-30T13:27:15.301Z,101045.22
2022-07-30T13:29:16.812Z,101042.28
2022-07-30T13:31:18.406Z,101030.91
2022-07-30T13:33:19.956Z,101045.19
2022-07-30T13:35:21.649Z,101042.56
2022-07-30T13:37:23.781Z,101036.47
2022-07-30T13:39:40.118Z,101038.03
2022-07-30T13:41:43.075Z,101037.69
2022-07-30T13:43:44.880Z,101042.66
2022-07-30T13:45:46.658Z,101034.41
2022-07-30T13:47:48.213Z,101040.72
2022-07-30T13:49:49.761Z,101039.63
2022-07-30T13:51:51.307Z,101037.47
2022-07-30T13:53:53.078Z,101027.78
2022-07-30T13:55:54.674Z,101036.16
2022-07-30T13:57:58.023Z,101022.56
2022-07-30T13:59:59.536Z,101031.91
2022-07-30T14:02:01.361Z,101039.59
2022-07-30T14:04:02.949Z,101039.28
2022-07-30T14:06:10.404Z,101030.72
2022-07-30T14:08:13.095Z,101019.38
2022-07-30T14:10:14.758Z,101033.25
2022-07-30T14:12:16.298Z,101025.31
2022-07-30T14:14:19.435Z,101028.59
2022-07-30T14:16:43.494Z,101027.63
2022-07-30T14:18:42.451Z,101027.00
2022-07-30T14:20:48.454Z,101025.44
2022-07-30T14:22:50.617Z,101017.72
2022-07-30T14:24:52.136Z,101025.97
2022-07-30T14:26:58.641Z,101024.53
2022-07-30T14:29:00.387Z,101023.38
2022-07-30T14:31:03.314Z,101019.84
2022-07-30T14:33:05.003Z,101018.31
2022-07-30T14:35:08.922Z,101012.69
2022-07-30T14:37:14.495Z,101020.22
2022-07-30T14:39:16.189Z,101015.94
2022-07-30T14:41:17.739Z,101016.06
2022-07-30T14:43:19.312Z,101017.91
2022-07-30T14:45:20.865Z,101009.94
2022-07-30T14:47:23.728Z,101021.13
2022-07-30T14:49:25.325Z,101021.53
2022-07-30T14:51:29.069Z,101019.50
2022-07-30T14:53:34.260Z,101024.19
2022-07-30T14:55:35.771Z,101021.31
2022-07-30T14:57:37.506Z,101026.19
2022-07-30T14:59:39.040Z,101034.69
2022-07-30T15:01:40.984Z,101024.06
2022-07-30T15:03:44.488Z,101022.28
2022-07-30T15:05:50.343Z,101016.22
2022-07-30T15:07:53.713Z,101019.38
2022-07-30T15:09:55.486Z,101016.06
2022-07-30T15:12:08.902Z,101018.03
2022-07-30T15:14:11.386Z,101024.22
2022-07-30T15:16:13.768Z,101024.41
2022-07-30T15:18:15.333Z,101026.84
2022-07-30T15:20:18.476Z,101035.75
2022-07-30T15:22:20.379Z,101030.66
2022-07-30T15:24:22.065Z,101028.81
2022-07-30T15:26:27.745Z,101023.91
2022-07-30T15:28:29.259Z,101020.44
2022-07-30T15:30:30.906Z,101020.84
2022-07-30T15:32:32.506Z,101012.69
2022-07-30T15:34:34.607Z,101024.09
2022-07-30T15:36:37.759Z,101020.56
2022-07-30T15:38:39.290Z,101027.03
2022-07-30T15:40:40.849Z,101018.81
2022-07-30T15:42:42.401Z,101023.81
2022-07-30T15:44:48.629Z,101011.22
2022-07-30T15:46:50.850Z,101004.75
2022-07-30T15:48:52.473Z,101009.47
2022-07-30T15:50:59.516Z,101017.13
2022-07-30T15:53:05.673Z,101010.06
2022-07-30T15:55:11.209Z,101017.72
2022-07-30T15:57:12.904Z,101016.88
2022-07-30T15:59:14.653Z,101017.41
2022-07-30T16:01:16.348Z,101021.13
2022-07-30T16:03:17.968Z,101008.25
2022-07-30T16:05:19.477Z,101006.69
2022-07-30T16:07:21.090Z,101004.78
2022-07-30T16:09:23.994Z,101013.50
2022-07-30T16:11:25.737Z,101014.88
2022-07-30T16:13:27.319Z,101008.38
2022-07-30T16:15:29.089Z,101007.47
2022-07-30T16:17:30.611Z,101006.34
2022-07-30T16:19:32.184Z,101010.56
2022-07-30T16:21:34.046Z,101007.84
2022-07-30T16:23:36.239Z,101005.41
2022-07-30T16:25:39.394Z,101007.41
2022-07-30T16:27:40.990Z,101009.72
2022-07-30T16:29:42.535Z,101011.31
2022-07-30T16:31:44.232Z,101016.38
2022-07-30T16:33:45.836Z,101017.38
2022-07-30T16:35:49.003Z,101017.47
2022-07-30T16:37:52.683Z,101019.88
2022-07-30T16:39:54.321Z,101015.03
2022-07-30T16:41:57.296Z,101020.25
2022-07-30T16:43:58.994Z,101026.72
2022-07-30T16:46:00.547Z,101017.66
2022-07-30T16:48:02.119Z,101022.06
2022-07-30T16:50:04.075Z,101027.53
2022-07-30T16:52:06.027Z,101018.13
2022-07-30T16:54:07.911Z,101033.88
2022-07-30T16:56:09.456Z,101032.03
2022-07-30T16:58:12.767Z,101024.03
2022-07-30T17:00:15.192Z,101026.78
2022-07-30T17:02:16.752Z,101027.47
2022-07-30T17:04:19.504Z,101032.63
2022-07-30T17:06:21.028Z,101031.91
2022-07-30T17:08:24.986Z,101037.94
2022-07-30T17:10:27.738Z,101033.34
2022-07-30T17:12:29.444Z,101035.38
2022-07-30T17:14:32.484Z,101036.06
2022-07-30T17:16:33.989Z,101034.69
2022-07-30T17:18:35.742Z,101038.78
2022-07-30T17:20:37.352Z,101044.25
2022-07-30T17:22:42.909Z,101042.56
2022-07-30T17:24:44.770Z,101048.34
2022-07-30T17:26:46.308Z,101042.56
2022-07-30T17:28:47.838Z,101049.72
2022-07-30T17:30:50.756Z,101050.38
2022-07-30T17:32:52.940Z,101043.91
2022-07-30T17:34:55.051Z,101046.81
2022-07-30T17:36:56.601Z,101054.13
2022-07-30T17:38:58.149Z,101049.00
2022-07-30T17:40:59.653Z,101051.91
2022-07-30T17:43:01.787Z,101052.41
2022-07-30T17:45:03.750Z,101047.31
2022-07-30T17:47:10.955Z,101060.75
2022-07-30T17:49:13.977Z,101049.34
2022-07-30T17:51:15.946Z,101059.84
2022-07-30T17:53:17.466Z,101054.75
2022-07-30T17:55:19.023Z,101055.09
2022-07-30T17:57:20.617Z,101047.06
2022-07-30T17:59:22.319Z,101050.13
2022-07-30T18:01:24.135Z,101056.41
2022-07-30T18:03:27.221Z,101048.59
2022-07-30T18:05:29.166Z,101050.13
2022-07-30T18:07:30.848Z,101043.91
2022-07-30T18:09:36.110Z,101053.50
2022-07-30T18:11:41.510Z,101052.31
2022-07-30T18:13:43.501Z,101056.69
2022-07-30T18:15:45.080Z,101049.19
2022-07-30T18:17:46.621Z,101046.78
2022-07-30T18:19:49.517Z,101051.69
2022-07-30T18:21:52.210Z,101053.84
2022-07-30T18:23:53.765Z,101054.16
2022-07-30T18:25:55.467Z,101056.34
2022-07-30T18:27:59.005Z,101060.25
2022-07-30T18:30:00.534Z,101063.19
2022-07-30T18:32:02.356Z,101060.78
2022-07-30T18:34:04.241Z,101060.22
2022-07-30T18:36:07.256Z,101065.09
2022-07-30T18:38:08.913Z,101062.38
2022-07-30T18:40:12.226Z,101069.03
2022-07-30T18:42:14.239Z,101066.69
2022-07-30T18:44:15.753Z,101067.59
2022-07-30T18:46:17.330Z,101074.09
2022-07-30T18:48:19.185Z,101072.41
2022-07-30T18:50:20.885Z,101079.53
2022-07-30T18:52:23.846Z,101082.50
2022-07-30T18:54:25.357Z,101081.22
2022-07-30T18:56:26.897Z,101085.63
2022-07-30T18:58:28.459Z,101078.97
2022-07-30T19:00:30.913Z,101078.03
2022-07-30T19:02:37.460Z,101094.19
2022-07-30T19:04:39.115Z,101093.31
2022-07-30T19:06:40.889Z,101095.81
2022-07-30T19:08:43.778Z,101101.72
2022-07-30T19:10:45.378Z,101104.66
2022-07-30T19:12:46.946Z,101106.13
2022-07-30T19:14:48.703Z,101116.53
2022-07-30T19:16:50.258Z,101108.00
2022-07-30T19:18:53.313Z,101118.66
2022-07-30T19:20:54.895Z,101116.25
2022-07-30T19:23:00.319Z,101114.72
2022-07-30T19:25:03.661Z,101118.13
2022-07-30T19:27:05.867Z,101128.66
2022-07-30T19:29:07.810Z,101121.47
2022-07-30T19:31:09.413Z,101122.53
2022-07-30T19:33:15.453Z,101123.38
2022-07-30T19:35:17.435Z,101133.72
2022-07-30T19:37:18.979Z,101138.06
2022-07-30T19:39:21.259Z,101135.78
2022-07-30T19:41:25.035Z,101142.06
2022-07-30T19:43:26.577Z,101138.94
2022-07-30T19:45:47.454Z,101139.81
2022-07-30T19:47:49.661Z,101140.66
2022-07-30T19:49:51.318Z,101138.97
2022-07-30T19:52:17.665Z,101134.31
2022-07-30T19:54:16.984Z,101136.16
2022-07-30T19:56:19.444Z,101132.69
2022-07-30T19:58:22.473Z,101140.00
2022-07-30T20:00:26.595Z,101136.72
2022-07-30T20:02:28.112Z,101134.75
2022-07-30T20:04:29.666Z,101139.47
2022-07-30T20:06:31.853Z,101136.34
2022-07-30T20:08:33.657Z,101142.34
2022-07-30T20:10:35.259Z,101145.34
2022-07-30T20:12:37.476Z,101142.22
2022-07-30T20:14:43.619Z,101142.03
2022-07-30T20:16:45.577Z,101134.50
2022-07-30T20:18:47.252Z,101142.75
2022-07-30T20:20:49.674Z,101134.06
2022-07-30T20:22:52.561Z,101134.06
2022-07-30T20:24:54.143Z,101134.63
2022-07-30T20:26:56.053Z,101133.94
2022-07-30T20:28:57.600Z,101139.63
2022-07-30T20:31:02.159Z,101140.06
2022-07-30T20:33:04.277Z,101139.91
2022-07-30T20:35:07.246Z,101139.63
2022-07-30T20:37:15.894Z,101134.16
2022-07-30T20:39:24.760Z,101134.63
2022-07-30T20:41:26.300Z,101147.19
2022-07-30T20:43:28.028Z,101135.63
2022-07-30T20:45:40.490Z,101138.19
2022-07-30T20:47:43.726Z,101137.16
2022-07-30T20:49:48.793Z,101140.41
2022-07-30T20:51:50.661Z,101140.97
2022-07-30T20:53:52.230Z,101133.50
2022-07-30T20:55:53.810Z,101135.22
2022-07-30T20:58:02.865Z,101130.38
2022-07-30T21:00:16.215Z,101133.22
2022-07-30T21:02:17.795Z,101139.00
2022-07-30T21:04:30.136Z,101133.88
2022-07-30T21:06:31.664Z,101130.56
2022-07-30T21:08:36.318Z,101123.81
2022-07-30T21:10:38.954Z,101123.69
2022-07-30T21:12:40.469Z,101122.25
2022-07-30T21:14:46.191Z,101120.09
2022-07-30T21:16:54.349Z,101125.47
2022-07-30T21:18:57.442Z,101119.75
2022-07-30T21:21:00.937Z,101122.75
2022-07-30T21:23:10.275Z,101120.09
2022-07-30T21:25:11.897Z,101118.53
2022-07-30T21:27:13.434Z,101120.19
2022-07-30T21:29:17.244Z,101115.19
2022-07-30T21:31:19.980Z,101110.41
2022-07-30T21:33:41.914Z,101115.13
2022-07-30T21:35:43.446Z,101117.38
2022-07-30T21:37:46.395Z,101113.91
2022-07-30T21:39:48.465Z,101113.91
2022-07-30T21:41:49.974Z,101112.94
2022-07-30T21:43:51.582Z,101120.97
2022-07-30T21:45:54.740Z,101121.91
2022-07-30T21:47:57.156Z,101116.47
2022-07-30T21:50:01.272Z,101121.56
2022-07-30T21:52:05.354Z,101126.47
2022-07-30T21:54:08.740Z,101125.03
2022-07-30T21:56:10.625Z,101113.44
2022-07-30T21:58:23.885Z,101123.13
2022-07-30T22:00:43.610Z,101130.38
2022-07-30T22:02:53.961Z,101134.47
2022-07-30T22:05:07.864Z,101121.69
2022-07-30T22:07:10.243Z,101118.00
2022-07-30T22:09:19.479Z,101126.03
2022-07-30T22:11:42.370Z,101118.47
2022-07-30T22:13:53.958Z,101115.88
2022-07-30T22:15:55.955Z,101121.16
2022-07-30T22:18:00.736Z,101122.69
2022-07-30T22:20:02.853Z,101123.34
2022-07-30T22:22:26.218Z,101121.75
2022-07-30T22:24:30.265Z,101126.72
2022-07-30T22:26:32.895Z,101116.69
2022-07-30T22:28:34.820Z,101120.25
2022-07-30T22:30:38.999Z,101112.69
2022-07-30T22:32:40.589Z,101119.19
2022-07-30T22:34:42.107Z,101122.84
2022-07-30T22:36:46.539Z,101118.09
2022-07-30T22:38:58.469Z,101124.25
2022-07-30T22:41:02.723Z,101124.38
2022-07-30T22:43:07.616Z,101124.50
2022-07-30T22:45:09.803Z,101130.75
2022-07-30T22:47:18.970Z,101120.47
2022-07-30T22:49:23.331Z,101105.28
2022-07-30T22:52:01.824Z,101119.75
2022-07-30T22:54:11.015Z,101120.53
2022-07-30T22:56:15.745Z,101116.47
2022-07-30T22:58:17.662Z,101109.28
2022-07-30T23:00:28.301Z,101113.47
2022-07-30T23:02:30.114Z,101107.94
2022-07-30T23:04:31.656Z,101102.94
2022-07-30T23:06:34.798Z,101107.59
2022-07-30T23:08:36.312Z,101112.50
2022-07-30T23:10:38.075Z,101104.38
2022-07-30T23:12:42.149Z,101105.38
2022-07-30T23:14:43.776Z,101101.94
2022-07-30T23:16:50.154Z,101104.19
2022-07-30T23:18:52.341Z,101104.69
2022-07-30T23:20:58.417Z,101097.56
2022-07-30T23:23:01.778Z,101101.50
2022-07-30T23:25:04.464Z,101096.84
2022-07-30T23:27:06.265Z,101089.50
2022-07-30T23:29:09.341Z,101099.69
2022-07-30T23:31:17.664Z,101097.34
2022-07-30T23:33:19.222Z,101093.69
2022-07-30T23:35:20.853Z,101094.19
2022-07-30T23:37:22.347Z,101089.28